createdAt,value
2018-02-27T00:00:21.273Z,43.21
2018-02-27T00:01:21.434Z,43.46
2018-02-27T00:02:21.592Z,43.95
2018-02-27T00:03:21.751Z,43.70
2018-02-27T00:04:21.921Z,43.46
2018-02-27T00:05:22.072Z,43.46
2018-02-27T00:06:22.236Z,43.70
2018-02-27T00:07:22.392Z,43.70
2018-02-27T00:08:22.558Z,43.46
2018-02-27T00:09:22.717Z,43.70
2018-02-27T00:10:22.878Z,43.21
2018-02-27T00:11:23.036Z,43.70
2018-02-27T00:12:23.202Z,43.70
2018-02-27T00:13:23.359Z,43.70
2018-02-27T00:14:23.519Z,43.70
2018-02-27T00:15:23.677Z,43.95
2018-02-27T00:16:23.840Z,43.95
2018-02-27T00:17:23.993Z,43.46
2018-02-27T00:18:24.162Z,43.46
2018-02-27T00:19:24.320Z,43.21
2018-02-27T00:20:24.481Z,43.46
2018-02-27T00:21:24.640Z,43.46
2018-02-27T00:22:24.802Z,44.68
2018-02-27T00:23:24.961Z,44.19
2018-02-27T00:24:25.126Z,44.19
2018-02-27T00:25:25.280Z,43.95
2018-02-27T00:26:25.558Z,43.46
2018-02-27T00:27:25.603Z,44.19
2018-02-27T00:28:25.768Z,44.19
2018-02-27T00:29:25.928Z,43.95
2018-02-27T00:30:26.089Z,43.46
2018-02-27T00:31:26.247Z,43.21
2018-02-27T00:32:26.408Z,43.70
2018-02-27T00:33:26.556Z,43.46
2018-02-27T00:34:26.726Z,43.95
2018-02-27T00:35:26.881Z,44.43
2018-02-27T00:36:27.054Z,43.70
2018-02-27T00:37:27.212Z,44.43
2018-02-27T00:38:27.373Z,42.97
2018-02-27T00:39:27.532Z,43.70
2018-02-27T00:40:27.698Z,43.70
2018-02-27T00:41:27.856Z,43.46
2018-02-27T00:42:28.014Z,43.21
2018-02-27T00:43:28.172Z,44.43
2018-02-27T00:44:28.338Z,43.95
2018-02-27T00:45:28.492Z,43.21
2018-02-27T00:46:28.654Z,43.21
2018-02-27T00:47:28.812Z,43.46
2018-02-27T00:48:28.975Z,43.95
2018-02-27T00:49:29.133Z,43.70
2018-02-27T00:50:29.296Z,43.95
2018-02-27T00:51:29.455Z,44.19
2018-02-27T00:52:29.616Z,43.70
2018-02-27T00:53:29.774Z,44.19
2018-02-27T00:54:29.941Z,43.95
2018-02-27T00:55:30.096Z,43.95
2018-02-27T00:56:30.259Z,43.95
2018-02-27T00:57:30.418Z,43.95
2018-02-27T00:58:30.581Z,43.70
2018-02-27T00:59:30.740Z,43.70
2018-02-27T01:00:30.902Z,43.46
2018-02-27T01:01:31.060Z,43.95
2018-02-27T01:02:31.223Z,42.97
2018-02-27T01:03:31.380Z,43.70
2018-02-27T01:04:31.546Z,43.46
2018-02-27T01:05:31.699Z,43.46
2018-02-27T01:06:31.863Z,49.80
2018-02-27T01:07:32.023Z,43.95
2018-02-27T01:08:32.400Z,43.46
2018-02-27T01:09:32.341Z,43.46
2018-02-27T01:10:32.528Z,43.46
2018-02-27T01:11:32.652Z,43.95
2018-02-27T01:12:32.803Z,43.70
2018-02-27T01:13:32.961Z,44.92
2018-02-27T01:14:33.116Z,43.95
2018-02-27T01:15:33.273Z,43.46
2018-02-27T01:16:33.431Z,44.19
2018-02-27T01:17:33.589Z,43.46
2018-02-27T01:18:33.748Z,43.46
2018-02-27T01:19:33.906Z,42.97
2018-02-27T01:20:34.063Z,43.95
2018-02-27T01:21:34.221Z,44.19
2018-02-27T01:22:34.380Z,43.95
2018-02-27T01:23:34.540Z,43.46
2018-02-27T01:24:34.687Z,43.46
2018-02-27T01:25:34.859Z,43.21
2018-02-27T01:26:35.016Z,43.46
2018-02-27T01:27:35.180Z,43.46
2018-02-27T01:28:35.338Z,44.19
2018-02-27T01:29:35.501Z,43.95
2018-02-27T01:30:35.659Z,44.19
2018-02-27T01:31:35.819Z,44.19
2018-02-27T01:32:35.982Z,43.95
2018-02-27T01:33:36.172Z,43.70
2018-02-27T01:34:37.043Z,44.19
2018-02-27T01:35:36.571Z,43.21
2018-02-27T01:36:36.673Z,46.88
2018-02-27T01:37:36.829Z,43.21
2018-02-27T01:38:36.993Z,43.70
2018-02-27T01:39:37.153Z,43.46
2018-02-27T01:40:37.318Z,43.95
2018-02-27T01:41:37.485Z,43.95
2018-02-27T01:42:37.639Z,43.70
2018-02-27T01:43:37.797Z,43.70
2018-02-27T01:44:37.959Z,43.95
2018-02-27T01:45:38.116Z,43.70
2018-02-27T01:46:38.262Z,43.21
2018-02-27T01:47:38.425Z,43.95
2018-02-27T01:48:38.573Z,43.46
2018-02-27T01:49:38.728Z,43.21
2018-02-27T01:50:38.889Z,43.46
2018-02-27T01:51:39.048Z,43.21
2018-02-27T01:52:39.203Z,60.55
2018-02-27T01:53:39.360Z,43.95
2018-02-27T01:54:39.519Z,43.46
2018-02-27T01:55:39.677Z,43.21
2018-02-27T01:56:39.835Z,43.95
2018-02-27T01:57:39.992Z,43.21
2018-02-27T01:58:40.155Z,43.95
2018-02-27T01:59:40.314Z,43.46
2018-02-27T02:00:40.472Z,43.46
2018-02-27T02:01:40.635Z,43.70
2018-02-27T02:02:40.795Z,43.46
2018-02-27T02:03:40.955Z,43.70
2018-02-27T02:04:41.113Z,43.21
2018-02-27T02:05:41.277Z,44.19
2018-02-27T02:06:41.435Z,43.70
2018-02-27T02:07:41.597Z,44.19
2018-02-27T02:08:41.755Z,62.01
2018-02-27T02:09:41.919Z,43.95
2018-02-27T02:10:42.077Z,43.46
2018-02-27T02:11:42.239Z,43.95
2018-02-27T02:12:42.398Z,43.70
2018-02-27T02:13:42.561Z,43.70
2018-02-27T02:14:42.718Z,43.21
2018-02-27T02:15:42.882Z,43.46
2018-02-27T02:16:43.041Z,43.21
2018-02-27T02:17:43.202Z,43.70
2018-02-27T02:18:43.360Z,47.85
2018-02-27T02:19:43.517Z,44.19
2018-02-27T02:20:43.678Z,43.95
2018-02-27T02:21:43.842Z,43.95
2018-02-27T02:22:44.000Z,43.70
2018-02-27T02:23:44.172Z,43.70
2018-02-27T02:24:44.324Z,43.46
2018-02-27T02:25:44.486Z,43.95
2018-02-27T02:26:44.647Z,43.95
2018-02-27T02:27:44.806Z,43.46
2018-02-27T02:28:44.965Z,43.70
2018-02-27T02:29:45.128Z,43.70
2018-02-27T02:30:45.286Z,43.95
2018-02-27T02:31:45.448Z,43.95
2018-02-27T02:32:45.604Z,43.95
2018-02-27T02:33:45.768Z,44.19
2018-02-27T02:34:45.926Z,43.95
2018-02-27T02:35:46.093Z,43.70
2018-02-27T02:36:46.249Z,43.70
2018-02-27T02:37:46.413Z,43.46
2018-02-27T02:38:46.561Z,43.70
2018-02-27T02:39:46.733Z,43.70
2018-02-27T02:40:46.890Z,44.19
2018-02-27T02:41:47.053Z,43.21
2018-02-27T02:42:47.211Z,43.70
2018-02-27T02:43:47.374Z,43.70
2018-02-27T02:44:47.530Z,43.95
2018-02-27T02:45:47.695Z,43.21
2018-02-27T02:46:47.856Z,43.21
2018-02-27T02:47:48.016Z,43.46
2018-02-27T02:48:48.174Z,43.95
2018-02-27T02:49:48.336Z,43.95
2018-02-27T02:50:48.494Z,43.70
2018-02-27T02:51:48.657Z,43.95
2018-02-27T02:52:48.819Z,43.46
2018-02-27T02:53:48.997Z,43.70
2018-02-27T02:54:49.158Z,43.70
2018-02-27T02:55:49.314Z,43.95
2018-02-27T02:56:49.474Z,43.70
2018-02-27T02:57:49.631Z,43.95
2018-02-27T02:58:49.791Z,43.95
2018-02-27T02:59:49.948Z,43.46
2018-02-27T03:00:50.106Z,43.70
2018-02-27T03:01:50.264Z,43.70
2018-02-27T03:02:50.422Z,44.68
2018-02-27T03:03:50.580Z,43.95
2018-02-27T03:04:50.740Z,43.70
2018-02-27T03:05:50.903Z,43.46
2018-02-27T03:06:51.065Z,43.46
2018-02-27T03:07:51.222Z,43.46
2018-02-27T03:08:51.381Z,43.70
2018-02-27T03:09:51.545Z,43.21
2018-02-27T03:10:51.704Z,43.21
2018-02-27T03:11:51.865Z,43.70
2018-02-27T03:12:52.023Z,44.68
2018-02-27T03:13:52.186Z,44.19
2018-02-27T03:14:52.345Z,43.70
2018-02-27T03:15:52.507Z,44.19
2018-02-27T03:16:52.669Z,43.95
2018-02-27T03:17:52.828Z,43.46
2018-02-27T03:18:52.985Z,43.46
2018-02-27T03:19:53.148Z,43.95
2018-02-27T03:20:53.308Z,43.95
2018-02-27T03:21:53.470Z,42.97
2018-02-27T03:22:53.628Z,43.46
2018-02-27T03:23:53.791Z,43.95
2018-02-27T03:24:53.949Z,44.19
2018-02-27T03:25:54.112Z,43.46
2018-02-27T03:26:54.272Z,43.70
2018-02-27T03:27:54.432Z,44.43
2018-02-27T03:28:54.593Z,43.95
2018-02-27T03:29:54.753Z,43.46
2018-02-27T03:30:54.905Z,43.21
2018-02-27T03:31:55.074Z,43.70
2018-02-27T03:32:55.232Z,43.21
2018-02-27T03:33:55.396Z,43.21
2018-02-27T03:34:55.546Z,43.46
2018-02-27T03:35:55.717Z,43.70
2018-02-27T03:36:55.877Z,42.97
2018-02-27T03:37:56.038Z,43.21
2018-02-27T03:38:56.197Z,43.70
2018-02-27T03:39:56.408Z,43.21
2018-02-27T03:40:56.516Z,43.70
2018-02-27T03:41:56.679Z,43.70
2018-02-27T03:42:56.841Z,43.46
2018-02-27T03:43:57.000Z,43.95
2018-02-27T03:44:57.160Z,43.46
2018-02-27T03:45:57.320Z,43.46
2018-02-27T03:46:57.481Z,43.95
2018-02-27T03:47:57.642Z,43.46
2018-02-27T03:48:57.802Z,43.95
2018-02-27T03:49:57.964Z,43.46
2018-02-27T03:50:58.122Z,43.95
2018-02-27T03:51:58.283Z,43.95
2018-02-27T03:52:58.443Z,42.97
2018-02-27T03:53:58.605Z,43.46
2018-02-27T03:54:58.762Z,43.70
2018-02-27T03:55:58.926Z,43.21
2018-02-27T03:56:59.075Z,43.21
2018-02-27T03:57:59.246Z,43.70
2018-02-27T03:58:59.404Z,43.70
2018-02-27T03:59:59.566Z,43.70
2018-02-27T04:00:59.725Z,43.70
2018-02-27T04:01:59.903Z,43.70
2018-02-27T04:03:00.045Z,43.95
2018-02-27T04:04:00.205Z,43.70
2018-02-27T04:05:00.371Z,43.95
2018-02-27T04:06:00.530Z,43.46
2018-02-27T04:07:00.687Z,43.21
2018-02-27T04:08:00.850Z,43.46
2018-02-27T04:09:01.001Z,43.46
2018-02-27T04:10:01.171Z,43.70
2018-02-27T04:11:01.324Z,43.46
2018-02-27T04:12:01.493Z,43.95
2018-02-27T04:13:01.758Z,43.70
2018-02-27T04:14:01.873Z,44.68
2018-02-27T04:15:02.031Z,43.95
2018-02-27T04:16:02.191Z,42.97
2018-02-27T04:17:02.349Z,43.70
2018-02-27T04:18:02.509Z,43.46
2018-02-27T04:19:02.666Z,43.46
2018-02-27T04:20:02.822Z,43.95
2018-02-27T04:21:02.985Z,43.46
2018-02-27T04:22:03.144Z,44.19
2018-02-27T04:23:03.357Z,43.21
2018-02-27T04:24:03.461Z,43.46
2018-02-27T04:25:03.631Z,43.46
2018-02-27T04:26:03.784Z,43.21
2018-02-27T04:27:03.950Z,43.70
2018-02-27T04:28:04.098Z,43.46
2018-02-27T04:29:04.270Z,43.70
2018-02-27T04:30:04.427Z,43.95
2018-02-27T04:31:04.591Z,44.19
2018-02-27T04:32:04.749Z,44.92
2018-02-27T04:33:04.912Z,43.70
2018-02-27T04:34:05.070Z,43.46
2018-02-27T04:35:05.233Z,44.19
2018-02-27T04:36:05.392Z,43.21
2018-02-27T04:37:05.555Z,43.70
2018-02-27T04:38:05.712Z,43.70
2018-02-27T04:39:05.879Z,43.21
2018-02-27T04:40:06.039Z,43.46
2018-02-27T04:41:06.194Z,43.21
2018-02-27T04:42:06.356Z,43.95
2018-02-27T04:43:06.552Z,43.95
2018-02-27T04:44:06.786Z,45.90
2018-02-27T04:45:07.014Z,46.63
2018-02-27T04:46:07.117Z,46.39
2018-02-27T04:47:07.278Z,43.46
2018-02-27T04:48:07.436Z,43.70
2018-02-27T04:49:07.586Z,43.95
2018-02-27T04:50:07.743Z,43.95
2018-02-27T04:51:07.903Z,43.70
2018-02-27T04:52:08.062Z,42.97
2018-02-27T04:53:08.222Z,43.21
2018-02-27T04:54:08.385Z,44.19
2018-02-27T04:55:08.543Z,44.68
2018-02-27T04:56:08.728Z,44.19
2018-02-27T04:57:08.892Z,46.39
2018-02-27T04:58:09.048Z,43.21
2018-02-27T04:59:09.206Z,43.46
2018-02-27T05:00:09.363Z,43.70
2018-02-27T05:01:09.524Z,43.46
2018-02-27T05:02:09.680Z,43.70
2018-02-27T05:03:09.839Z,43.70
2018-02-27T05:04:09.995Z,43.46
2018-02-27T05:05:10.152Z,44.43
2018-02-27T05:06:10.411Z,44.19
2018-02-27T05:07:10.538Z,45.90
2018-02-27T05:08:10.689Z,44.43
2018-02-27T05:09:10.847Z,44.43
2018-02-27T05:10:11.005Z,43.95
2018-02-27T05:11:11.165Z,44.19
2018-02-27T05:12:11.323Z,44.19
2018-02-27T05:13:11.482Z,43.95
2018-02-27T05:14:11.644Z,43.70
2018-02-27T05:15:11.803Z,43.70
2018-02-27T05:16:11.965Z,43.21
2018-02-27T05:17:12.124Z,43.21
2018-02-27T05:18:12.286Z,43.95
2018-02-27T05:19:12.443Z,43.70
2018-02-27T05:20:12.608Z,43.21
2018-02-27T05:21:12.768Z,43.46
2018-02-27T05:22:12.927Z,43.46
2018-02-27T05:23:13.087Z,48.10
2018-02-27T05:24:13.248Z,43.70
2018-02-27T05:25:13.407Z,52.98
2018-02-27T05:26:13.569Z,52.49
2018-02-27T05:27:13.728Z,43.46
2018-02-27T05:28:13.890Z,42.97
2018-02-27T05:29:14.051Z,43.70
2018-02-27T05:30:14.211Z,44.43
2018-02-27T05:31:14.369Z,43.21
2018-02-27T05:32:14.532Z,43.46
2018-02-27T05:33:14.695Z,43.70
2018-02-27T05:34:14.853Z,43.70
2018-02-27T05:35:15.014Z,44.19
2018-02-27T05:36:15.179Z,44.43
2018-02-27T05:37:15.332Z,43.46
2018-02-27T05:38:15.493Z,43.70
2018-02-27T05:39:15.652Z,43.21
2018-02-27T05:40:15.816Z,43.46
2018-02-27T05:41:15.974Z,44.43
2018-02-27T05:42:16.138Z,43.46
2018-02-27T05:43:16.295Z,43.21
2018-02-27T05:44:16.463Z,43.46
2018-02-27T05:45:16.619Z,43.46
2018-02-27T05:46:16.779Z,44.19
2018-02-27T05:47:16.939Z,42.97
2018-02-27T05:48:17.099Z,43.95
2018-02-27T05:49:17.277Z,45.17
2018-02-27T05:50:17.425Z,43.70
2018-02-27T05:51:17.578Z,43.46
2018-02-27T05:52:17.740Z,42.97
2018-02-27T05:53:17.897Z,43.95
2018-02-27T05:54:18.061Z,43.46
2018-02-27T05:55:18.221Z,55.91
2018-02-27T05:56:18.383Z,55.66
2018-02-27T05:57:18.541Z,43.21
2018-02-27T05:58:18.703Z,43.46
2018-02-27T05:59:18.861Z,43.70
2018-02-27T06:00:19.027Z,43.70
2018-02-27T06:01:19.182Z,42.97
2018-02-27T06:02:19.344Z,43.70
2018-02-27T06:03:19.504Z,43.70
2018-02-27T06:04:19.666Z,43.95
2018-02-27T06:05:19.824Z,43.21
2018-02-27T06:06:19.988Z,43.46
2018-02-27T06:07:20.147Z,43.21
2018-02-27T06:08:20.321Z,44.43
2018-02-27T06:09:20.462Z,43.70
2018-02-27T06:10:20.616Z,43.46
2018-02-27T06:11:20.772Z,47.85
2018-02-27T06:12:20.934Z,43.70
2018-02-27T06:13:21.094Z,43.70
2018-02-27T06:14:21.245Z,54.44
2018-02-27T06:15:21.403Z,44.68
2018-02-27T06:16:21.559Z,43.46
2018-02-27T06:17:21.717Z,43.46
2018-02-27T06:18:21.874Z,43.95
2018-02-27T06:19:22.031Z,43.70
2018-02-27T06:20:22.190Z,43.46
2018-02-27T06:21:22.350Z,46.63
2018-02-27T06:22:22.504Z,43.21
2018-02-27T06:23:22.669Z,43.46
2018-02-27T06:24:22.822Z,44.19
2018-02-27T06:25:22.984Z,43.46
2018-02-27T06:26:23.140Z,44.19
2018-02-27T06:27:23.306Z,42.97
2018-02-27T06:28:23.463Z,43.46
2018-02-27T06:29:23.626Z,42.72
2018-02-27T06:30:23.784Z,43.70
2018-02-27T06:31:23.991Z,43.46
2018-02-27T06:32:24.097Z,43.46
2018-02-27T06:33:24.302Z,43.95
2018-02-27T06:34:24.455Z,43.95
2018-02-27T06:35:24.613Z,43.70
2018-02-27T06:36:24.770Z,43.70
2018-02-27T06:37:24.926Z,43.46
2018-02-27T06:38:25.087Z,43.21
2018-02-27T06:39:25.262Z,43.70
2018-02-27T06:40:25.403Z,43.70
2018-02-27T06:41:25.561Z,43.70
2018-02-27T06:42:25.719Z,43.46
2018-02-27T06:43:25.893Z,43.46
2018-02-27T06:44:26.025Z,44.19
2018-02-27T06:45:26.193Z,45.65
2018-02-27T06:46:26.390Z,52.73
2018-02-27T06:47:26.514Z,44.19
2018-02-27T06:48:26.700Z,43.70
2018-02-27T06:49:26.834Z,43.21
2018-02-27T06:50:26.993Z,43.46
2018-02-27T06:51:27.156Z,43.70
2018-02-27T06:52:27.315Z,43.95
2018-02-27T06:53:27.477Z,43.70
2018-02-27T06:54:27.635Z,43.70
2018-02-27T06:55:27.797Z,43.70
2018-02-27T06:56:27.955Z,43.95
2018-02-27T06:57:28.118Z,43.70
2018-02-27T06:58:28.276Z,43.70
2018-02-27T06:59:28.436Z,43.21
2018-02-27T07:00:28.599Z,43.46
2018-02-27T07:01:28.766Z,43.46
2018-02-27T07:02:28.922Z,43.46
2018-02-27T07:03:29.078Z,44.43
2018-02-27T07:04:29.239Z,57.86
2018-02-27T07:05:29.401Z,43.70
2018-02-27T07:06:29.561Z,42.97
2018-02-27T07:07:29.724Z,43.21
2018-02-27T07:08:29.883Z,43.95
2018-02-27T07:09:30.044Z,43.95
2018-02-27T07:10:30.632Z,43.70
2018-02-27T07:11:30.371Z,43.70
2018-02-27T07:12:30.524Z,43.46
2018-02-27T07:13:31.002Z,43.21
2018-02-27T07:14:30.844Z,43.46
2018-02-27T07:15:31.011Z,42.97
2018-02-27T07:16:31.162Z,43.46
2018-02-27T07:17:31.308Z,43.95
2018-02-27T07:18:31.499Z,44.43
2018-02-27T07:19:31.628Z,43.95
2018-02-27T07:20:31.779Z,43.70
2018-02-27T07:21:31.935Z,43.21
2018-02-27T07:22:32.092Z,44.68
2018-02-27T07:23:32.250Z,44.19
2018-02-27T07:24:32.408Z,43.70
2018-02-27T07:25:32.566Z,43.70
2018-02-27T07:26:32.733Z,43.46
2018-02-27T07:27:32.868Z,43.46
2018-02-27T07:28:33.030Z,43.46
2018-02-27T07:29:33.185Z,43.95
2018-02-27T07:30:33.345Z,44.92
2018-02-27T07:31:33.505Z,43.46
2018-02-27T07:32:33.657Z,42.72
2018-02-27T07:33:33.814Z,54.69
2018-02-27T07:34:33.972Z,60.55
2018-02-27T07:35:34.130Z,43.21
2018-02-27T07:36:34.288Z,43.70
2018-02-27T07:37:34.444Z,43.95
2018-02-27T07:38:34.603Z,43.70
2018-02-27T07:39:34.762Z,43.70
2018-02-27T07:40:34.920Z,43.70
2018-02-27T07:41:35.079Z,43.70
2018-02-27T07:42:35.238Z,43.70
2018-02-27T07:43:35.398Z,43.70
2018-02-27T07:44:35.550Z,43.70
2018-02-27T07:45:35.717Z,43.70
2018-02-27T07:46:35.879Z,43.21
2018-02-27T07:47:36.039Z,43.95
2018-02-27T07:48:36.198Z,43.21
2018-02-27T07:49:36.361Z,42.97
2018-02-27T07:50:36.520Z,43.21
2018-02-27T07:51:36.683Z,43.70
2018-02-27T07:52:36.887Z,44.68
2018-02-27T07:53:37.007Z,43.21
2018-02-27T07:54:37.175Z,43.70
2018-02-27T07:55:37.332Z,42.72
2018-02-27T07:56:37.494Z,44.43
2018-02-27T07:57:37.644Z,44.19
2018-02-27T07:58:37.797Z,43.46
2018-02-27T07:59:37.968Z,43.70
2018-02-27T08:00:38.118Z,43.21
2018-02-27T08:01:38.270Z,44.19
2018-02-27T08:02:38.428Z,44.19
2018-02-27T08:03:38.582Z,43.21
2018-02-27T08:04:38.741Z,43.95
2018-02-27T08:05:38.898Z,43.95
2018-02-27T08:06:39.060Z,44.43
2018-02-27T08:07:39.216Z,43.46
2018-02-27T08:08:39.373Z,42.97
2018-02-27T08:09:39.532Z,43.21
2018-02-27T08:10:39.711Z,43.70
2018-02-27T08:11:39.861Z,43.70
2018-02-27T08:12:40.021Z,42.97
2018-02-27T08:13:40.179Z,44.68
2018-02-27T08:14:40.338Z,43.70
2018-02-27T08:15:40.495Z,43.21
2018-02-27T08:16:40.653Z,43.95
2018-02-27T08:17:40.811Z,43.46
2018-02-27T08:18:40.969Z,43.46
2018-02-27T08:19:41.130Z,43.70
2018-02-27T08:20:41.288Z,43.21
2018-02-27T08:21:41.446Z,42.97
2018-02-27T08:22:41.604Z,43.46
2018-02-27T08:23:41.762Z,43.21
2018-02-27T08:24:41.923Z,43.21
2018-02-27T08:25:42.083Z,43.70
2018-02-27T08:26:42.244Z,43.70
2018-02-27T08:27:42.405Z,43.46
2018-02-27T08:28:42.566Z,43.70
2018-02-27T08:29:42.725Z,43.46
2018-02-27T08:30:42.902Z,43.21
2018-02-27T08:31:43.049Z,43.70
2018-02-27T08:32:43.207Z,43.21
2018-02-27T08:33:43.357Z,43.46
2018-02-27T08:34:43.528Z,43.21
2018-02-27T08:35:43.686Z,43.70
2018-02-27T08:36:43.849Z,43.95
2018-02-27T08:37:44.001Z,43.46
2018-02-27T08:38:44.171Z,42.97
2018-02-27T08:39:44.329Z,89.84
2018-02-27T08:40:44.494Z,58.84
2018-02-27T08:41:44.647Z,72.02
2018-02-27T08:42:44.818Z,83.25
2018-02-27T08:43:44.967Z,75.93
2018-02-27T08:44:45.133Z,79.59
2018-02-27T09:34:40.548Z,82.28
2018-02-27T09:41:07.552Z,64.94
2018-02-27T09:42:07.685Z,64.21
2018-02-27T09:43:07.831Z,66.89
2018-02-27T09:44:07.985Z,61.77
2018-02-27T09:45:08.135Z,59.33
2018-02-27T09:46:08.285Z,60.55
2018-02-27T09:47:08.437Z,64.94
2018-02-27T09:48:08.590Z,73.73
2018-02-27T09:49:08.746Z,60.55
2018-02-27T09:50:08.888Z,69.09
2018-02-27T09:51:09.037Z,67.14
2018-02-27T09:52:09.232Z,70.31
2018-02-27T09:53:09.336Z,82.03
2018-02-27T09:54:09.486Z,64.70
2018-02-27T09:55:09.646Z,66.89
2018-02-27T09:56:09.790Z,72.51
2018-02-27T09:57:09.933Z,69.34
2018-02-27T09:58:10.082Z,61.28
2018-02-27T09:59:10.233Z,62.01
2018-02-27T10:00:10.377Z,71.29
2018-02-27T10:01:10.520Z,65.67
2018-02-27T10:02:10.676Z,59.81
2018-02-27T10:03:10.814Z,60.06
2018-02-27T10:04:10.971Z,63.23
2018-02-27T10:05:11.115Z,61.04
2018-02-27T10:06:11.263Z,70.07
2018-02-27T10:07:11.416Z,57.86
2018-02-27T10:08:11.551Z,58.35
2018-02-27T10:09:11.705Z,56.88
2018-02-27T10:10:11.854Z,58.11
2018-02-27T10:11:11.999Z,60.06
2018-02-27T10:12:12.151Z,52.98
2018-02-27T10:13:12.294Z,57.62
2018-02-27T10:14:12.439Z,56.15
2018-02-27T10:15:12.588Z,62.74
2018-02-27T10:16:12.728Z,54.69
2018-02-27T10:17:12.889Z,60.79
2018-02-27T10:18:13.024Z,57.37
2018-02-27T10:19:13.169Z,60.06
2018-02-27T10:20:13.311Z,67.87
2018-02-27T10:21:13.461Z,72.27
2018-02-27T10:22:13.644Z,73.73
2018-02-27T10:23:13.753Z,72.27
2018-02-27T10:24:13.899Z,71.29
2018-02-27T10:25:14.046Z,73.49
2018-02-27T10:26:14.200Z,70.80
2018-02-27T10:27:14.361Z,77.88
2018-02-27T10:28:14.494Z,73.24
2018-02-27T10:29:14.670Z,73.73
2018-02-27T10:30:14.783Z,74.22
2018-02-27T10:31:14.928Z,66.89
2018-02-27T10:32:15.072Z,63.72
2018-02-27T10:33:15.215Z,56.15
2018-02-27T10:34:15.360Z,57.62
2018-02-27T10:35:15.506Z,60.79
2018-02-27T10:36:15.651Z,53.96
2018-02-27T10:37:15.794Z,65.67
2018-02-27T10:38:15.939Z,70.07
2018-02-27T10:39:16.083Z,58.84
2018-02-27T10:40:16.229Z,58.84
2018-02-27T10:41:16.377Z,61.04
2018-02-27T10:42:16.522Z,61.04
2018-02-27T10:43:16.668Z,62.99
2018-02-27T10:44:16.812Z,58.84
2018-02-27T10:45:16.955Z,59.57
2018-02-27T10:46:17.100Z,59.08
2018-02-27T10:47:17.250Z,52.98
2018-02-27T10:48:17.392Z,58.84
2018-02-27T10:49:17.540Z,59.81
2018-02-27T10:50:17.701Z,60.30
2018-02-27T10:51:17.828Z,63.23
2018-02-27T10:52:17.973Z,57.13
2018-02-27T10:53:18.117Z,59.08
2018-02-27T10:54:18.262Z,55.91
2018-02-27T10:55:18.409Z,50.78
2018-02-27T10:56:18.558Z,57.13
2018-02-27T10:57:18.699Z,53.47
2018-02-27T10:58:18.846Z,51.03
2018-02-27T10:59:18.994Z,55.66
2018-02-27T11:00:19.134Z,56.15
2018-02-27T11:01:19.282Z,67.38
2018-02-27T11:02:19.432Z,71.04
2018-02-27T11:03:19.573Z,70.31
2018-02-27T11:04:19.719Z,69.34
2018-02-27T11:05:19.863Z,83.50
2018-02-27T11:06:20.008Z,70.07
2018-02-27T11:07:20.170Z,63.72
2018-02-27T11:08:20.539Z,59.81
2018-02-27T11:09:20.456Z,55.66
2018-02-27T11:10:20.591Z,58.84
2018-02-27T11:12:20.884Z,63.96
2018-02-27T11:13:21.032Z,65.43
2018-02-27T11:15:21.314Z,53.96
2018-02-27T11:16:21.463Z,54.69
2018-02-27T11:17:21.607Z,57.86
2018-02-27T11:18:21.750Z,51.76
2018-02-27T11:19:21.896Z,61.28
2018-02-27T11:20:22.041Z,54.44
2018-02-27T11:21:22.192Z,57.37
2018-02-27T11:22:22.332Z,69.09
2018-02-27T11:23:22.478Z,60.55
2018-02-27T11:24:22.629Z,60.30
2018-02-27T11:25:22.767Z,58.35
2018-02-27T11:27:23.060Z,58.59
2018-02-27T11:28:23.204Z,56.15
2018-02-27T11:29:23.358Z,68.12
2018-02-27T11:30:23.497Z,57.13
2018-02-27T11:31:23.646Z,63.96
2018-02-27T11:32:23.787Z,55.42
2018-02-27T11:33:23.932Z,57.37
2018-02-27T11:34:24.078Z,52.73
2018-02-27T11:35:24.231Z,60.79
2018-02-27T11:36:24.376Z,56.15
2018-02-27T11:37:24.520Z,61.04
2018-02-27T11:38:24.668Z,80.57
2018-02-27T11:39:24.815Z,79.83
2018-02-27T11:40:24.961Z,55.18
2018-02-27T11:42:25.242Z,68.85
2018-02-27T11:43:25.398Z,58.11
2018-02-27T11:44:25.553Z,54.69
2018-02-27T11:45:25.680Z,53.71
2018-02-27T11:46:25.834Z,72.27
2018-02-27T11:47:25.977Z,57.86
2018-02-27T11:48:26.125Z,55.66
2018-02-27T11:49:26.268Z,53.96
2018-02-27T11:50:26.412Z,61.77
2018-02-27T11:51:26.566Z,59.57
2018-02-27T11:52:26.704Z,64.21
2018-02-27T11:53:26.847Z,64.94
2018-02-27T11:54:26.993Z,60.55
2018-02-27T11:55:27.142Z,56.15
2018-02-27T11:56:27.299Z,62.26
2018-02-27T11:57:27.433Z,61.04
2018-02-27T11:58:27.578Z,64.70
2018-02-27T11:59:27.725Z,63.48
2018-02-27T12:00:27.881Z,61.28
2018-02-27T12:01:28.020Z,62.50
2018-02-27T12:02:28.168Z,62.26
2018-02-27T12:03:28.317Z,51.51
2018-02-27T12:04:28.457Z,60.79
2018-02-27T12:05:28.605Z,51.03
2018-02-27T12:06:28.752Z,58.59
2018-02-27T12:07:28.895Z,59.33
2018-02-27T12:08:29.043Z,57.37
2018-02-27T12:09:29.188Z,53.71
2018-02-27T12:10:29.333Z,58.11
2018-02-27T12:11:29.488Z,58.35
2018-02-27T12:12:29.626Z,65.67
2018-02-27T12:13:29.772Z,60.55
2018-02-27T12:14:29.923Z,52.00
2018-02-27T12:15:30.064Z,56.88
2018-02-27T12:16:30.210Z,52.73
2018-02-27T12:17:30.361Z,66.65
2018-02-27T12:18:30.505Z,65.19
2018-02-27T12:19:30.648Z,61.04
2018-02-27T12:20:30.798Z,62.99
2018-02-27T12:21:30.946Z,60.06
2018-02-27T12:22:31.104Z,60.55
2018-02-27T12:23:31.251Z,60.55
2018-02-27T12:24:31.395Z,65.92
2018-02-27T12:25:31.540Z,63.48
2018-02-27T12:26:31.690Z,62.50
2018-02-27T12:27:31.833Z,56.15
2018-02-27T12:28:31.987Z,60.79
2018-02-27T12:29:32.130Z,58.84
2018-02-27T12:30:32.276Z,55.18
2018-02-27T12:31:32.424Z,58.35
2018-02-27T12:32:32.576Z,55.42
2018-02-27T12:33:32.716Z,53.96
2018-02-27T12:34:32.863Z,62.50
2018-02-27T12:35:33.019Z,61.28
2018-02-27T12:36:33.158Z,63.23
2018-02-27T12:37:33.302Z,56.88
2018-02-27T12:38:33.452Z,59.57
2018-02-27T12:39:33.850Z,52.98
2018-02-27T12:40:33.743Z,60.30
2018-02-27T12:41:33.894Z,58.11
2018-02-27T12:42:34.049Z,63.96
2018-02-27T12:43:34.178Z,63.96
2018-02-27T12:44:34.328Z,60.06
2018-02-27T12:45:34.476Z,56.40
2018-02-27T12:46:34.615Z,57.62
2018-02-27T12:47:34.764Z,59.08
2018-02-27T12:48:34.917Z,60.30
2018-02-27T12:49:35.060Z,54.44
2018-02-27T12:50:35.202Z,56.15
2018-02-27T12:51:35.601Z,57.13
2018-02-27T12:52:35.505Z,57.86
2018-02-27T12:53:35.648Z,61.28
2018-02-27T12:54:35.804Z,51.51
2018-02-27T12:55:35.947Z,58.35
2018-02-27T12:56:36.097Z,65.43
2018-02-27T12:57:36.243Z,58.11
2018-02-27T12:58:36.390Z,57.13
2018-02-27T12:59:36.535Z,60.55
2018-02-27T13:00:36.680Z,63.96
2018-02-27T13:01:36.830Z,80.81
2018-02-27T13:02:36.983Z,77.39
2018-02-27T13:03:37.133Z,72.51
2018-02-27T13:04:37.272Z,83.50
2018-02-27T13:05:37.414Z,76.42
2018-02-27T13:06:37.561Z,72.02
2018-02-27T13:07:37.725Z,69.34
2018-02-27T13:08:37.854Z,66.65
2018-02-27T13:09:38.001Z,75.20
2018-02-27T13:10:38.146Z,78.86
2018-02-27T13:11:38.292Z,61.52
2018-02-27T13:12:38.439Z,60.30
2018-02-27T13:13:38.586Z,61.28
2018-02-27T13:14:38.731Z,68.12
2018-02-27T13:15:38.925Z,59.81
2018-02-27T13:16:39.024Z,59.33
2018-02-27T13:17:39.169Z,58.84
2018-02-27T13:18:39.318Z,56.88
2018-02-27T13:19:39.473Z,56.88
2018-02-27T13:20:39.608Z,58.59
2018-02-27T13:21:39.752Z,57.62
2018-02-27T13:22:39.906Z,62.26
2018-02-27T13:23:40.052Z,57.37
2018-02-27T13:24:40.191Z,58.11
2018-02-27T13:25:40.341Z,67.63
2018-02-27T13:26:40.488Z,60.55
2018-02-27T13:27:40.630Z,80.81
2018-02-27T13:28:40.778Z,74.71
2018-02-27T13:29:40.927Z,64.45
2018-02-27T13:30:41.081Z,77.39
2018-02-27T13:31:41.220Z,59.57
2018-02-27T13:32:41.388Z,60.30
2018-02-27T13:33:41.517Z,57.13
2018-02-27T13:34:41.659Z,56.15
2018-02-27T13:35:41.812Z,58.59
2018-02-27T13:36:41.954Z,61.28
2018-02-27T13:37:42.105Z,70.56
2018-02-27T13:38:42.243Z,61.52
2018-02-27T13:39:42.404Z,60.55
2018-02-27T13:40:42.533Z,54.69
2018-02-27T13:41:42.682Z,55.18
2018-02-27T13:42:42.829Z,53.47
2018-02-27T13:43:42.976Z,59.33
2018-02-27T13:44:43.128Z,80.57
2018-02-27T13:45:43.265Z,74.22
2018-02-27T13:46:43.412Z,62.26
2018-02-27T13:47:43.565Z,60.55
2018-02-27T13:48:45.912Z,62.99
2018-02-27T13:49:43.849Z,62.50
2018-02-27T13:50:44.004Z,78.61
2018-02-27T13:51:44.142Z,66.65
2018-02-27T13:52:44.289Z,59.57